createdAt,value
2017-12-04T00:02:03.679Z,102305.91
2017-12-04T00:04:09.035Z,102290.54
2017-12-04T00:06:16.061Z,102305.97
2017-12-04T00:10:35.099Z,102299.55
2017-12-04T00:14:46.670Z,102296.16
2017-12-04T00:17:06.920Z,102303.84
2017-12-04T00:19:11.645Z,102304.73
2017-12-04T00:21:17.142Z,102308.16
2017-12-04T00:23:33.120Z,102306.87
2017-12-04T00:25:40.402Z,102300.05
2017-12-04T00:27:45.881Z,102304.75
2017-12-04T00:29:48.261Z,102305.19
2017-12-04T00:36:50.695Z,102305.21
2017-12-04T00:38:54.877Z,102303.95
2017-12-04T00:40:59.394Z,102303.09
2017-12-04T00:43:01.240Z,102307.41
2017-12-04T00:45:03.251Z,102307.40
2017-12-04T00:47:05.228Z,102309.11
2017-12-04T00:49:07.268Z,102300.56
2017-12-04T00:51:09.226Z,102300.13
2017-12-04T00:53:11.283Z,102293.38
2017-12-04T00:55:13.279Z,102300.19
2017-12-04T00:57:15.265Z,102305.74
2017-12-04T00:59:17.201Z,102298.02
2017-12-04T01:01:19.252Z,102304.89
2017-12-04T01:03:21.288Z,102313.86
2017-12-04T01:05:23.228Z,102304.91
2017-12-04T01:07:25.254Z,102302.77
2017-12-04T01:09:27.290Z,102300.66
2017-12-04T01:11:29.232Z,102297.23
2017-12-04T01:13:31.262Z,102302.38
2017-12-04T01:15:33.269Z,102300.69
2017-12-04T01:17:35.248Z,102304.97
2017-12-04T01:19:37.208Z,102304.96
2017-12-04T01:21:39.244Z,102304.13
2017-12-04T01:23:41.220Z,102301.97
2017-12-04T01:26:37.676Z,102307.95
2017-12-04T01:28:40.684Z,102314.37
2017-12-04T01:30:42.314Z,102321.21
2017-12-04T01:40:38.278Z,102327.19
2017-12-04T01:42:40.464Z,102336.66
2017-12-04T01:44:42.432Z,102328.95
2017-12-04T01:46:45.004Z,102331.95
2017-12-04T01:48:47.040Z,102340.07
2017-12-04T01:50:49.536Z,102329.41
2017-12-04T01:55:08.904Z,102331.97
2017-12-04T01:57:12.482Z,102338.81
2017-12-04T01:59:14.449Z,102335.39
2017-12-04T02:01:16.422Z,102343.09
2017-12-04T02:03:18.664Z,102335.44
2017-12-04T02:05:20.853Z,102331.16
2017-12-04T02:07:22.922Z,102328.60
2017-12-04T02:09:24.852Z,102334.16
2017-12-04T02:11:27.046Z,102340.57
2017-12-04T02:13:29.423Z,102338.01
2017-12-04T02:17:51.576Z,102339.28
2017-12-04T02:19:56.007Z,102339.71
2017-12-04T02:21:58.408Z,102338.45
2017-12-04T02:24:00.249Z,102344.02
2017-12-04T02:26:02.885Z,102339.31
2017-12-04T02:28:04.741Z,102342.75
2017-12-04T02:30:06.721Z,102344.46
2017-12-04T02:32:09.058Z,102343.18
2017-12-04T02:34:11.459Z,102346.60
2017-12-04T02:36:14.420Z,102334.20
2017-12-04T02:38:17.415Z,102335.91
2017-12-04T02:40:20.688Z,102337.64
2017-12-04T02:42:22.962Z,102335.96
2017-12-04T02:44:24.964Z,102332.11
2017-12-04T02:46:27.266Z,102329.12
2017-12-04T02:48:30.060Z,102326.55
2017-12-04T02:50:32.550Z,102331.69
2017-12-04T02:52:45.437Z,102325.25
2017-12-04T02:54:49.087Z,102320.99
2017-12-04T02:56:52.566Z,102325.27
2017-12-04T02:58:55.204Z,102324.84
2017-12-04T03:00:57.599Z,102323.13
2017-12-04T03:02:59.753Z,102324.41
2017-12-04T03:05:01.960Z,102325.73
2017-12-04T03:07:05.255Z,102324.44
2017-12-04T03:09:08.425Z,102320.59
2017-12-04T03:11:14.868Z,102315.48
2017-12-04T03:13:20.307Z,102318.05
2017-12-04T03:15:23.416Z,102323.61
2017-12-04T03:17:27.002Z,102326.17
2017-12-04T03:19:29.954Z,102329.16
2017-12-04T03:23:16.256Z,102329.16
2017-12-04T03:25:21.921Z,102327.05
2017-12-04T03:27:24.509Z,102326.60
2017-12-04T03:29:27.087Z,102325.31
2017-12-04T03:31:30.588Z,102339.45
2017-12-04T03:33:32.538Z,102332.19
2017-12-04T03:35:35.803Z,102341.59
2017-12-04T03:38:18.766Z,102341.98
2017-12-04T03:40:21.945Z,102339.02
2017-12-04T03:42:24.716Z,102342.87
2017-12-04T03:44:26.876Z,102326.72
2017-12-04T03:46:28.769Z,102345.01
2017-12-04T03:48:32.259Z,102348.42
2017-12-04T03:50:42.284Z,102345.00
2017-12-04T03:52:57.474Z,102348.42
2017-12-04T03:55:01.761Z,102346.71
2017-12-04T03:57:04.826Z,102336.88
2017-12-04T03:59:09.398Z,102333.46
2017-12-04T04:01:11.864Z,102345.42
2017-12-04T04:03:14.947Z,102337.73
2017-12-04T04:05:18.352Z,102340.30
2017-12-04T04:07:22.843Z,102329.62
2017-12-04T04:09:24.796Z,102334.77
2017-12-04T04:11:28.426Z,102336.45
2017-12-04T04:13:31.391Z,102333.06
2017-12-04T04:15:36.803Z,102332.20
2017-12-04T04:17:39.115Z,102334.34
2017-12-04T04:19:42.818Z,102335.59
2017-12-04T04:21:54.906Z,102339.90
2017-12-04T04:31:53.289Z,102333.91
2017-12-04T04:33:56.708Z,102337.33
2017-12-04T04:36:01.284Z,102339.50
2017-12-04T04:38:13.288Z,102339.47
2017-12-04T04:40:16.400Z,102342.48
2017-12-04T04:42:19.332Z,102342.45
2017-12-04T04:44:34.274Z,102345.48
2017-12-04T04:46:37.696Z,102345.47
2017-12-04T04:48:51.456Z,102349.34
2017-12-04T04:50:54.240Z,102358.32
2017-12-04T04:52:57.129Z,102360.03
2017-12-04T04:55:10.020Z,102349.77
2017-12-04T04:57:12.690Z,102352.76
2017-12-04T04:59:15.270Z,102353.19
2017-12-04T05:01:18.289Z,102363.88
2017-12-04T05:03:21.708Z,102359.59
2017-12-04T05:05:23.276Z,102353.19
2017-12-04T05:07:33.328Z,102346.80
2017-12-04T05:09:45.289Z,102359.20
2017-12-04T05:12:00.271Z,102361.76
2017-12-04T05:14:12.271Z,102355.77
2017-12-04T05:16:14.711Z,102351.92
2017-12-04T05:18:19.673Z,102350.64
2017-12-04T05:20:22.268Z,102356.63
2017-12-04T05:22:24.289Z,102359.62
2017-12-04T05:24:32.640Z,102355.34
2017-12-04T05:26:34.260Z,102357.06
2017-12-04T05:28:37.016Z,102360.05
2017-12-04T05:33:03.060Z,102359.62
2017-12-04T05:35:06.718Z,102364.31
2017-12-04T05:37:12.287Z,102366.88
2017-12-04T05:39:17.125Z,102379.70
2017-12-04T05:41:19.907Z,102377.59
2017-12-04T05:43:23.959Z,102370.33
2017-12-04T05:45:28.195Z,102367.77
2017-12-04T05:47:33.377Z,102362.23
2017-12-04T05:49:38.920Z,102366.94
2017-12-04T05:51:46.912Z,102368.22
2017-12-04T05:56:00.982Z,102379.73
2017-12-04T05:59:11.694Z,102375.02
2017-12-04T06:01:16.767Z,102376.75
2017-12-04T06:05:29.431Z,102375.92
2017-12-04T06:07:40.473Z,102384.05
2017-12-04T06:15:45.849Z,102392.17
2017-12-04T06:28:38.414Z,102401.12
2017-12-04T06:30:43.981Z,102403.66
2017-12-04T06:34:59.000Z,102400.27
2017-12-04T06:37:07.377Z,102402.83
2017-12-04T06:39:10.917Z,102407.94
2017-12-04T06:41:19.076Z,102410.95
2017-12-04T06:43:24.394Z,102415.66
2017-12-04T06:47:36.661Z,102420.75
2017-12-04T06:49:38.868Z,102428.90
2017-12-04T06:51:42.645Z,102429.75
2017-12-04T06:53:48.671Z,102432.29
2017-12-04T06:56:40.274Z,102437.42
2017-12-04T06:58:45.443Z,102440.84
2017-12-04T07:00:48.595Z,102436.14
2017-12-04T07:02:51.468Z,102442.12
2017-12-04T07:08:15.824Z,102439.55
2017-12-04T07:10:18.312Z,102448.53
2017-12-04T07:12:23.287Z,102447.25
2017-12-04T07:14:26.663Z,102443.00
2017-12-04T07:18:37.457Z,102446.84
2017-12-04T07:20:39.834Z,102456.27
2017-12-04T07:22:43.803Z,102461.40
2017-12-04T07:24:51.264Z,102455.41
2017-12-04T07:27:11.792Z,102457.09
2017-12-04T07:35:44.307Z,102467.83
2017-12-04T07:37:51.246Z,102481.05
2017-12-04T07:39:56.782Z,102484.49
2017-12-04T07:41:59.854Z,102481.93
2017-12-04T07:48:14.335Z,102481.05
2017-12-04T07:50:18.043Z,102479.36
2017-12-04T08:00:39.411Z,102491.31
2017-12-04T08:04:57.113Z,102504.98
2017-12-04T08:07:01.097Z,102505.01
2017-12-04T08:09:05.678Z,102509.26
2017-12-04T08:15:19.280Z,102512.25
2017-12-04T08:59:03.832Z,102530.59
2017-12-04T09:03:16.125Z,102531.87
2017-12-04T09:05:21.314Z,102530.58
2017-12-04T09:07:25.722Z,102534.87
2017-12-04T09:09:30.733Z,102541.68
2017-12-04T09:11:46.252Z,102540.85
2017-12-04T09:15:55.677Z,102545.10
2017-12-04T09:59:47.072Z,102580.11
2017-12-04T10:01:50.420Z,102579.23
2017-12-04T10:03:58.138Z,102579.64
2017-12-04T10:08:10.018Z,102592.06
2017-12-04T10:10:14.080Z,102589.91
2017-12-04T10:12:18.633Z,102593.32
2017-12-04T10:14:24.469Z,102592.03
2017-12-04T10:18:45.771Z,102589.48
2017-12-04T10:20:49.387Z,102583.92
2017-12-04T10:22:53.616Z,102587.32
2017-12-04T10:24:58.344Z,102594.16
2017-12-04T10:27:03.579Z,102598.88
2017-12-04T10:31:28.978Z,102596.73
2017-12-04T10:33:31.112Z,102595.45
2017-12-04T10:35:34.176Z,102588.20
2017-12-04T10:39:57.927Z,102599.72
2017-12-04T10:42:00.306Z,102594.60
2017-12-04T10:44:05.896Z,102599.27
2017-12-04T10:46:14.037Z,102602.27
2017-12-04T10:48:16.355Z,102606.56
2017-12-04T10:50:20.452Z,102605.69
2017-12-04T10:52:23.132Z,102609.95
2017-12-04T10:56:40.684Z,102605.25
2017-12-04T10:58:49.246Z,102606.95
2017-12-04T11:01:24.154Z,102611.64
2017-12-04T11:03:27.338Z,102619.76
2017-12-04T11:05:33.397Z,102611.20
2017-12-04T11:07:37.517Z,102608.21
2017-12-04T11:09:44.984Z,102606.94
2017-12-04T11:11:49.852Z,102606.48
2017-12-04T11:13:54.947Z,102602.62
2017-12-04T11:18:18.184Z,102609.91
2017-12-04T11:20:20.908Z,102602.19
2017-12-04T11:22:24.380Z,102602.63
2017-12-04T11:26:40.265Z,102609.44
2017-12-04T11:28:46.111Z,102607.73
2017-12-04T11:30:52.794Z,102603.47
2017-12-04T11:32:59.048Z,102612.84
2017-12-04T11:35:02.297Z,102614.59
2017-12-04T11:37:07.975Z,102617.13
2017-12-04T11:39:13.744Z,102620.55
2017-12-04T11:43:23.555Z,102623.09
2017-12-04T11:45:41.043Z,102623.09
2017-12-04T11:49:56.798Z,102618.82
2017-12-04T11:52:01.776Z,102618.40
2017-12-04T11:54:29.325Z,102628.23
2017-12-04T11:58:53.552Z,102624.39
2017-12-04T12:01:00.951Z,102621.81
2017-12-04T12:05:18.689Z,102617.52
2017-12-04T12:07:21.796Z,102614.53
2017-12-04T12:13:49.862Z,102629.45
2017-12-04T12:16:33.807Z,102629.48
2017-12-04T12:18:38.741Z,102630.36
2017-12-04T12:20:44.896Z,102623.09
2017-12-04T12:22:50.681Z,102632.45
2017-12-04T12:24:52.705Z,102617.08
2017-12-04T12:29:13.974Z,102619.63
2017-12-04T12:31:22.030Z,102617.47
2017-12-04T12:33:29.135Z,102622.63
2017-12-04T12:35:38.511Z,102621.33
2017-12-04T12:37:42.800Z,102626.87
2017-12-04T12:39:54.027Z,102617.47
2017-12-04T12:43:34.407Z,102616.62
2017-12-04T12:45:36.312Z,102617.47
2017-12-04T12:47:39.303Z,102618.31
2017-12-04T12:49:42.816Z,102615.73
2017-12-04T12:51:45.293Z,102615.30
2017-12-04T13:01:04.343Z,102614.44
2017-12-04T13:03:09.261Z,102609.71
2017-12-04T13:07:22.322Z,102613.54
2017-12-04T13:10:34.685Z,102621.67
2017-12-04T13:12:41.480Z,102620.39
2017-12-04T13:15:10.110Z,102622.53
2017-12-04T13:17:16.709Z,102618.66
2017-12-04T13:19:47.229Z,102621.22
2017-12-04T13:21:51.256Z,102626.79
2017-12-04T13:26:36.279Z,102621.19
2017-12-04T13:28:45.697Z,102622.43
2017-12-04T13:30:51.916Z,102619.44
2017-12-04T13:33:02.621Z,102621.55
2017-12-04T13:36:49.228Z,102612.60
2017-12-04T13:39:24.767Z,102611.75
2017-12-04T13:42:34.880Z,102598.06
2017-12-04T13:44:38.766Z,102595.06
2017-12-04T13:46:40.731Z,102598.91
2017-12-04T13:48:43.535Z,102598.45
2017-12-04T13:50:46.948Z,102607.84
2017-12-04T13:52:49.892Z,102613.41
2017-12-04T13:54:52.820Z,102610.42
2017-12-04T13:56:55.222Z,102606.98
2017-12-04T13:58:57.329Z,102612.11
2017-12-04T14:01:01.225Z,102608.27
2017-12-04T14:03:04.800Z,102609.12
2017-12-04T14:05:07.455Z,102608.69
2017-12-04T14:11:55.152Z,102621.91
2017-12-04T14:13:59.255Z,102626.22
2017-12-04T14:16:03.607Z,102627.95
2017-12-04T14:26:34.660Z,102654.87
2017-12-04T14:28:38.180Z,102647.59
2017-12-04T14:30:42.106Z,102653.98
2017-12-04T14:32:44.930Z,102650.55
2017-12-04T14:34:47.635Z,102656.98
2017-12-04T14:38:33.069Z,102663.41
2017-12-04T14:40:35.945Z,102655.70
2017-12-04T14:42:40.742Z,102667.66
2017-12-04T14:44:44.348Z,102663.41
2017-12-04T14:46:48.902Z,102672.37
2017-12-04T14:48:53.098Z,102671.94
2017-12-04T14:50:56.813Z,102674.08
2017-12-04T14:53:00.001Z,102680.92
2017-12-04T14:55:04.005Z,102677.07
2017-12-04T14:57:07.007Z,102680.90
2017-12-04T14:59:10.021Z,102675.77
2017-12-04T15:01:13.145Z,102674.48
2017-12-04T15:03:16.439Z,102681.76
2017-12-04T15:05:19.824Z,102676.20
2017-12-04T15:07:22.974Z,102678.79
2017-12-04T15:09:25.994Z,102677.50
2017-12-04T15:11:29.595Z,102677.48
2017-12-04T15:13:34.801Z,102677.05
2017-12-04T15:15:40.361Z,102681.76
2017-12-04T15:17:43.787Z,102686.03
2017-12-04T15:19:47.173Z,102688.17
2017-12-04T15:21:49.934Z,102689.02
2017-12-04T15:23:53.611Z,102694.15
2017-12-04T15:25:58.055Z,102698.88
2017-12-04T15:28:02.127Z,102699.73
2017-12-04T15:30:05.598Z,102702.30
2017-12-04T15:32:08.852Z,102698.02
2017-12-04T15:34:11.849Z,102705.30
2017-12-04T15:36:16.318Z,102696.32
2017-12-04T15:38:19.935Z,102703.99
2017-12-04T15:40:22.820Z,102703.57
2017-12-04T15:42:25.868Z,102704.42
2017-12-04T15:44:28.729Z,102715.55
2017-12-04T15:46:31.476Z,102707.00
2017-12-04T15:50:35.282Z,102706.57
2017-12-04T15:52:37.976Z,102717.27
2017-12-04T15:54:41.071Z,102713.42
2017-12-04T15:56:44.874Z,102716.81
2017-12-04T15:58:47.934Z,102720.67
2017-12-04T16:00:50.950Z,102721.92
2017-12-04T16:02:53.737Z,102730.92
2017-12-04T16:04:57.041Z,102727.08
2017-12-04T16:07:00.023Z,102728.36
2017-12-04T16:09:03.032Z,102732.21
2017-12-04T16:11:05.766Z,102729.19
2017-12-04T16:13:09.051Z,102728.76
2017-12-04T16:15:11.945Z,102733.49
2017-12-04T16:17:15.458Z,102739.48
2017-12-04T16:19:17.903Z,102739.03
2017-12-04T16:21:20.546Z,102746.30
2017-12-04T16:23:23.894Z,102743.74
2017-12-04T16:25:26.889Z,102745.45
2017-12-04T16:27:29.471Z,102745.45
2017-12-04T16:31:51.502Z,102750.16
2017-12-04T16:33:54.082Z,102751.47
2017-12-04T16:35:57.079Z,102747.61
2017-12-04T16:37:59.941Z,102750.17
2017-12-04T16:40:02.725Z,102747.61
2017-12-04T16:42:36.840Z,102754.89
2017-12-04T16:44:39.811Z,102756.59
2017-12-04T16:46:51.331Z,102761.30
2017-12-04T16:48:54.616Z,102766.03
2017-12-04T16:50:57.979Z,102776.72
2017-12-04T16:53:01.720Z,102779.30
2017-12-04T16:55:05.229Z,102772.45
2017-12-04T16:57:08.609Z,102782.72
2017-12-04T16:59:11.264Z,102781.44
2017-12-04T17:02:34.880Z,102788.72
2017-12-04T17:04:37.841Z,102788.30
2017-12-04T17:06:40.749Z,102789.98
2017-12-04T17:08:43.599Z,102785.30
2017-12-04T17:10:46.572Z,102786.59
2017-12-04T17:12:49.063Z,102793.00
2017-12-04T17:14:52.769Z,102794.71
2017-12-04T17:16:55.821Z,102795.57
2017-12-04T17:18:58.501Z,102812.66
2017-12-04T17:21:01.100Z,102809.69
2017-12-04T17:23:03.979Z,102810.95
2017-12-04T17:25:06.795Z,102816.51
2017-12-04T17:27:09.869Z,102813.95
2017-12-04T17:29:12.870Z,102819.94
2017-12-04T17:31:36.840Z,102826.80
2017-12-04T17:33:39.984Z,102826.34
2017-12-04T17:35:42.561Z,102827.20
2017-12-04T17:37:44.929Z,102831.05
2017-12-04T17:39:47.894Z,102837.48
2017-12-04T17:42:35.849Z,102839.59
2017-12-04T17:44:38.301Z,102842.59
2017-12-04T17:46:40.897Z,102840.88
2017-12-04T17:48:43.471Z,102845.59
2017-12-04T17:50:45.823Z,102851.16
2017-12-04T17:52:48.553Z,102854.58
2017-12-04T17:54:51.098Z,102850.73
2017-12-04T17:56:53.989Z,102848.15
2017-12-04T17:58:56.840Z,102849.86
2017-12-04T18:00:59.040Z,102855.00
2017-12-04T18:03:02.802Z,102859.73
2017-12-04T18:05:05.902Z,102862.29
2017-12-04T18:07:08.808Z,102852.43
2017-12-04T18:09:11.757Z,102866.13
2017-12-04T18:11:14.808Z,102860.16
2017-12-04T18:13:17.843Z,102865.70
2017-12-04T18:15:21.046Z,102860.99
2017-12-04T18:17:23.909Z,102872.98
2017-12-04T18:19:26.604Z,102869.98
2017-12-04T18:21:29.044Z,102876.41
2017-12-04T18:23:33.657Z,102874.27
2017-12-04T18:25:36.492Z,102878.11
2017-12-04T18:27:39.707Z,102867.83
2017-12-04T18:29:41.922Z,102873.41
2017-12-04T18:31:44.746Z,102870.83
2017-12-04T18:33:47.598Z,102870.41
2017-12-04T18:35:50.465Z,102864.84
2017-12-04T18:37:53.033Z,102862.72
2017-12-04T18:39:55.899Z,102871.26
2017-12-04T18:41:58.692Z,102872.11
2017-12-04T18:44:01.992Z,102870.83
2017-12-04T18:46:04.961Z,102881.97
2017-12-04T18:48:07.814Z,102885.39
2017-12-04T18:50:10.939Z,102892.66
2017-12-04T18:52:13.723Z,102892.25
2017-12-04T18:54:16.810Z,102903.35
2017-12-04T18:56:20.846Z,102895.67
2017-12-04T18:58:23.922Z,102900.80
2017-12-04T19:00:26.588Z,102900.78
2017-12-04T19:02:29.046Z,102902.50
2017-12-04T19:04:33.098Z,102910.65
2017-12-04T19:06:35.941Z,102908.08
2017-12-04T19:08:38.814Z,102908.08
2017-12-04T19:10:41.265Z,102914.93
2017-12-04T19:18:42.978Z,102918.36
2017-12-04T19:22:56.284Z,102915.31
2017-12-04T19:24:58.582Z,102913.59
2017-12-04T19:27:00.926Z,102913.20
2017-12-04T19:29:03.735Z,102919.17
2017-12-04T19:31:06.405Z,102916.20
2017-12-04T19:33:08.882Z,102914.48
2017-12-04T19:35:10.719Z,102919.64
2017-12-04T19:37:12.993Z,102916.20
2017-12-04T19:39:15.591Z,102914.50
2017-12-04T19:41:17.973Z,102913.63
2017-12-04T19:43:20.762Z,102912.79
2017-12-04T19:45:23.082Z,102916.22
2017-12-04T19:47:26.000Z,102918.36
2017-12-04T19:49:28.990Z,102920.06
2017-12-04T19:51:31.878Z,102921.36
2017-12-04T19:53:34.723Z,102920.93
2017-12-04T19:55:37.077Z,102926.06
2017-12-04T19:57:39.566Z,102928.61
2017-12-04T19:59:41.916Z,102929.49
2017-12-04T20:01:44.432Z,102930.77
2017-12-04T20:03:46.755Z,102933.34
2017-12-04T20:05:48.808Z,102938.87
2017-12-04T20:07:50.984Z,102940.61
2017-12-04T20:09:53.506Z,102937.17
2017-12-04T20:11:55.949Z,102947.89
2017-12-04T20:13:58.820Z,102945.75
2017-12-04T20:16:00.991Z,102945.32
2017-12-04T20:18:03.369Z,102950.45
2017-12-04T20:20:05.921Z,102946.16
2017-12-04T20:22:08.387Z,102953.88
2017-12-04T20:24:10.623Z,102952.16
2017-12-04T20:26:12.263Z,102954.75
2017-12-04T20:28:14.319Z,102958.59
2017-12-04T20:30:16.249Z,102957.73
2017-12-04T20:32:18.218Z,102957.72
2017-12-04T20:34:20.263Z,102960.73
2017-12-04T20:36:23.245Z,102962.43
2017-12-04T20:38:25.262Z,102963.72
2017-12-04T20:40:27.291Z,102962.02
2017-12-04T20:42:29.321Z,102961.98
2017-12-04T20:44:31.400Z,102963.70
2017-12-04T20:46:33.291Z,102964.55
2017-12-04T20:48:35.251Z,102965.44
2017-12-04T20:50:37.288Z,102969.69
2017-12-04T20:52:39.280Z,102968.84
2017-12-04T20:54:41.277Z,102971.86
2017-12-04T20:56:43.286Z,102967.58
2017-12-04T20:58:45.285Z,102967.98
2017-12-04T21:00:47.970Z,102965.44
2017-12-04T21:02:50.876Z,102975.26
2017-12-04T21:04:54.708Z,102970.89
2017-12-04T21:06:58.400Z,102974.39
2017-12-04T21:09:09.287Z,102981.38
2017-12-04T21:11:23.710Z,102976.85
2017-12-04T21:13:32.254Z,102978.42
2017-12-04T21:15:42.088Z,102974.86
2017-12-04T21:17:46.360Z,102982.88
2017-12-04T21:19:48.273Z,102986.64
2017-12-04T21:21:51.274Z,102989.55
2017-12-04T21:23:59.261Z,102989.91
2017-12-04T21:26:01.257Z,102996.70
2017-12-04T21:28:03.254Z,103003.50
2017-12-04T21:30:06.241Z,103001.33
2017-12-04T21:32:08.249Z,103002.58
2017-12-04T21:34:10.237Z,103012.41
2017-12-04T21:36:13.266Z,103019.22
2017-12-04T21:38:15.269Z,103011.45
2017-12-04T21:40:18.270Z,103010.99
2017-12-04T21:42:21.633Z,103009.70
2017-12-04T21:44:25.683Z,103008.81
2017-12-04T21:46:27.260Z,103012.66
2017-12-04T21:48:29.679Z,103014.77
2017-12-04T21:50:32.236Z,103012.19
2017-12-04T21:52:34.256Z,103016.05
2017-12-04T21:54:37.262Z,103023.30
2017-12-04T21:56:43.015Z,103020.70
2017-12-04T21:58:47.690Z,103027.57
2017-12-04T22:00:49.251Z,103030.98
2017-12-04T22:02:51.263Z,103023.69
2017-12-04T22:04:54.259Z,103029.27
2017-12-04T22:06:56.422Z,103035.26
2017-12-04T22:09:02.110Z,103039.98
2017-12-04T22:11:06.214Z,103046.80
2017-12-04T22:13:09.103Z,103048.55
2017-12-04T22:15:22.062Z,103045.55
2017-12-04T22:17:34.312Z,103041.62
2017-12-04T22:19:39.435Z,103046.80
2017-12-04T22:21:41.277Z,103037.78
2017-12-04T22:23:43.786Z,103042.52
2017-12-04T22:25:45.751Z,103046.36
2017-12-04T22:27:51.363Z,103053.22
2017-12-04T22:29:58.678Z,103057.12
2017-12-04T22:32:02.267Z,103057.55
2017-12-04T22:34:04.278Z,103060.98
2017-12-04T22:36:06.281Z,103059.70
2017-12-04T22:38:13.528Z,103063.56
2017-12-04T22:40:20.678Z,103063.97
2017-12-04T22:42:23.095Z,103066.56
2017-12-04T22:44:26.233Z,103060.98
2017-12-04T22:46:31.700Z,103054.16
2017-12-04T22:48:35.237Z,103054.98
2017-12-04T22:50:38.050Z,103058.02
2017-12-04T22:52:39.915Z,103048.60
2017-12-04T22:54:42.276Z,103053.75
2017-12-04T22:56:44.234Z,103048.14
2017-12-04T22:58:47.218Z,103052.86
2017-12-04T23:00:57.953Z,103055.04
2017-12-04T23:03:00.255Z,103058.05
2017-12-04T23:05:12.201Z,103059.80
2017-12-04T23:07:18.078Z,103058.50
2017-12-04T23:09:23.618Z,103067.98
2017-12-04T23:11:35.243Z,103062.39
2017-12-04T23:13:50.278Z,103063.68
2017-12-04T23:15:55.208Z,103073.16
2017-12-04T23:18:03.538Z,103072.70
2017-12-04T23:22:41.053Z,103069.73
2017-12-04T23:24:44.858Z,103076.19
2017-12-04T23:26:50.652Z,103077.49
2017-12-04T23:28:52.856Z,103085.23
2017-12-04T23:30:58.310Z,103076.63
2017-12-04T23:33:03.955Z,103082.23
2017-12-04T23:35:06.103Z,103096.00
2017-12-04T23:44:57.027Z,103090.44
2017-12-04T23:46:59.819Z,103090.87
2017-12-04T23:49:04.578Z,103100.77
2017-12-04T23:51:07.049Z,103091.34
2017-12-04T23:53:09.737Z,103094.35
